createdAt,value
2018-12-07T00:00:19.735Z,98655.10
2018-12-07T00:02:48.145Z,98654.56
2018-12-07T00:05:16.679Z,98656.41
2018-12-07T00:07:44.994Z,98651.42
2018-12-07T00:10:13.494Z,98646.48
2018-12-07T00:12:41.969Z,98647.23
2018-12-07T00:15:10.360Z,98643.54
2018-12-07T00:17:38.702Z,98650.97
2018-12-07T00:20:08.826Z,98647.59
2018-12-07T00:22:37.211Z,98645.77
2018-12-07T00:25:06.315Z,98639.58
2018-12-07T00:27:34.830Z,98631.36
2018-12-07T00:30:03.404Z,98626.00
2018-12-07T00:32:31.874Z,98622.03
2018-12-07T00:35:00.665Z,98620.63
2018-12-07T00:37:29.024Z,98619.89
2018-12-07T00:39:57.345Z,98622.59
2018-12-07T00:42:25.678Z,98620.19
2018-12-07T00:44:54.052Z,98616.17
2018-12-07T00:47:22.625Z,98620.19
2018-12-07T00:49:50.939Z,98614.94
2018-12-07T00:52:19.225Z,98607.53
2018-12-07T00:54:47.589Z,98610.64
2018-12-07T00:57:16.188Z,98605.44
2018-12-07T00:59:44.512Z,98609.87
2018-12-07T01:02:12.825Z,98602.59
2018-12-07T01:04:41.190Z,98602.06
2018-12-07T01:07:09.543Z,98594.34
2018-12-07T01:09:37.867Z,98596.06
2018-12-07T01:12:06.294Z,98603.06
2018-12-07T01:14:34.585Z,98605.64
2018-12-07T01:17:02.883Z,98598.50
2018-12-07T01:19:31.256Z,98599.28
2018-12-07T01:21:59.947Z,98588.53
2018-12-07T01:24:28.195Z,98590.27
2018-12-07T01:26:56.659Z,98592.41
2018-12-07T01:29:25.131Z,98593.98
2018-12-07T01:31:53.909Z,98593.08
2018-12-07T01:34:22.230Z,98601.33
2018-12-07T01:36:50.565Z,98600.61
2018-12-07T01:39:19.041Z,98601.37
2018-12-07T01:41:47.391Z,98599.72
2018-12-07T01:44:15.848Z,98600.74
2018-12-07T01:46:44.288Z,98593.44
2018-12-07T01:49:12.615Z,98593.38
2018-12-07T01:51:40.888Z,98598.35
2018-12-07T01:54:09.285Z,98593.45
2018-12-07T01:56:37.678Z,98584.17
2018-12-07T01:59:06.102Z,98585.83
2018-12-07T02:01:34.669Z,98589.13
2018-12-07T02:04:03.065Z,98575.92
2018-12-07T02:06:31.375Z,98573.85
2018-12-07T02:08:59.830Z,98569.98
2018-12-07T02:11:28.358Z,98568.07
2018-12-07T02:13:56.686Z,98566.34
2018-12-07T02:16:25.012Z,98564.54
2018-12-07T02:18:53.481Z,98568.63
2018-12-07T02:21:21.800Z,98569.59
2018-12-07T02:23:50.121Z,98564.78
2018-12-07T02:26:18.430Z,98560.77
2018-12-07T02:28:46.803Z,98553.58
2018-12-07T02:31:15.374Z,98551.30
2018-12-07T02:33:43.745Z,98552.37
2018-12-07T02:36:12.160Z,98540.27
2018-12-07T02:38:40.487Z,98527.55
2018-12-07T02:41:08.919Z,98531.27
2018-12-07T02:43:37.446Z,98526.75
2018-12-07T02:46:06.081Z,98532.67
2018-12-07T02:48:35.583Z,98535.34
2018-12-07T02:51:03.950Z,98531.19
2018-12-07T02:53:32.298Z,98526.20
2018-12-07T02:56:00.562Z,98526.75
2018-12-07T02:58:29.067Z,98529.28
2018-12-07T03:00:57.399Z,98529.25
2018-12-07T03:03:25.735Z,98523.91
2018-12-07T03:05:54.038Z,98519.11
2018-12-07T03:08:22.468Z,98511.23
2018-12-07T03:10:50.862Z,98509.84
2018-12-07T03:13:19.656Z,98505.79
2018-12-07T03:15:48.052Z,98502.06
2018-12-07T03:18:28.323Z,98500.62
2018-12-07T03:20:58.048Z,98498.02
2018-12-07T03:23:26.406Z,98497.94
2018-12-07T03:25:54.859Z,98486.71
2018-12-07T03:28:23.255Z,98480.08
2018-12-07T03:30:51.666Z,98469.36
2018-12-07T03:33:20.036Z,98479.82
2018-12-07T03:35:48.382Z,98469.45
2018-12-07T03:38:16.657Z,98471.47
2018-12-07T03:40:44.956Z,98475.02
2018-12-07T03:43:13.469Z,98471.97
2018-12-07T03:45:41.807Z,98478.21
2018-12-07T03:48:10.082Z,98472.38
2018-12-07T03:50:38.431Z,98480.41
2018-12-07T03:53:06.761Z,98471.72
2018-12-07T03:55:35.124Z,98465.16
2018-12-07T03:58:03.487Z,98471.06
2018-12-07T04:00:32.100Z,98466.03
2018-12-07T04:03:00.386Z,98458.27
2018-12-07T04:05:28.714Z,98461.43
2018-12-07T04:07:57.133Z,98456.60
2018-12-07T04:10:25.475Z,98458.14
2018-12-07T04:12:53.906Z,98458.78
2018-12-07T04:15:22.178Z,98451.36
2018-12-07T04:17:50.666Z,98447.41
2018-12-07T04:20:18.991Z,98446.94
2018-12-07T04:22:47.289Z,98440.88
2018-12-07T04:25:15.652Z,98438.28
2018-12-07T04:27:43.945Z,98449.03
2018-12-07T04:30:23.652Z,98440.27
2018-12-07T04:32:52.115Z,98429.50
2018-12-07T04:35:20.420Z,98434.81
2018-12-07T04:37:48.758Z,98430.45
2018-12-07T04:40:17.081Z,98424.86
2018-12-07T04:42:45.446Z,98423.20
2018-12-07T04:45:13.752Z,98415.30
2018-12-07T04:47:42.084Z,98420.14
2018-12-07T04:50:10.599Z,98413.39
2018-12-07T04:52:38.942Z,98427.48
2018-12-07T04:55:07.356Z,98425.27
2018-12-07T04:57:35.948Z,98428.44
2018-12-07T05:00:05.900Z,98430.50
2018-12-07T05:02:34.381Z,98418.28
2018-12-07T05:05:02.677Z,98410.84
2018-12-07T05:07:30.996Z,98413.83
2018-12-07T05:09:59.446Z,98406.33
2018-12-07T05:12:27.752Z,98405.75
2018-12-07T05:14:56.199Z,98406.82
2018-12-07T05:17:24.595Z,98403.91
2018-12-07T05:19:52.972Z,98396.29
2018-12-07T05:22:21.396Z,98397.46
2018-12-07T05:24:49.907Z,98403.23
2018-12-07T05:27:18.436Z,98397.95
2018-12-07T05:29:46.784Z,98398.91
2018-12-07T05:32:15.210Z,98401.69
2018-12-07T05:34:44.363Z,98395.67
2018-12-07T05:37:13.119Z,98398.43
2018-12-07T05:39:41.456Z,98394.17
2018-12-07T05:42:09.750Z,98385.94
2018-12-07T05:44:38.137Z,98392.16
2018-12-07T05:47:06.605Z,98390.91
2018-12-07T05:49:34.954Z,98389.06
2018-12-07T05:52:03.323Z,98379.92
2018-12-07T05:54:31.806Z,98382.31
2018-12-07T05:57:00.132Z,98376.58
2018-12-07T05:59:28.489Z,98375.80
2018-12-07T06:01:56.904Z,98384.80
2018-12-07T06:04:25.261Z,98376.08
2018-12-07T06:06:53.652Z,98378.25
2018-12-07T06:09:22.005Z,98377.16
2018-12-07T06:11:51.123Z,98380.84
2018-12-07T06:14:19.389Z,98377.55
2018-12-07T06:16:47.885Z,98374.55
2018-12-07T06:19:16.238Z,98377.16
2018-12-07T06:21:44.660Z,98373.34
2018-12-07T06:24:13.026Z,98378.31
2018-12-07T06:26:41.672Z,98372.97
2018-12-07T06:29:10.060Z,98372.34
2018-12-07T06:31:38.355Z,98366.19
2018-12-07T06:34:06.702Z,98365.75
2018-12-07T06:36:34.992Z,98367.20
2018-12-07T06:39:04.991Z,98359.84
2018-12-07T06:41:33.424Z,98356.34
2018-12-07T06:44:01.766Z,98353.86
2018-12-07T06:46:30.896Z,98357.56
2018-12-07T06:49:18.060Z,98353.75
2018-12-07T06:52:00.713Z,98355.20
2018-12-07T06:54:29.053Z,98352.70
2018-12-07T06:56:57.496Z,98345.05
2018-12-07T06:59:25.871Z,98342.03
2018-12-07T07:01:54.654Z,98342.23
2018-12-07T07:04:23.062Z,98336.95
2018-12-07T07:06:51.346Z,98338.81
2018-12-07T07:09:19.687Z,98338.93
2018-12-07T07:11:47.955Z,98335.44
2018-12-07T07:14:16.382Z,98334.17
2018-12-07T07:16:44.920Z,98331.39
2018-12-07T07:19:13.231Z,98329.55
2018-12-07T07:21:41.687Z,98324.25
2018-12-07T07:24:09.981Z,98321.05
2018-12-07T07:26:38.478Z,98317.83
2018-12-07T07:29:06.820Z,98319.63
2018-12-07T07:31:35.198Z,98319.85
2018-12-07T07:34:03.571Z,98316.89
2018-12-07T07:36:31.911Z,98306.48
2018-12-07T07:39:00.201Z,98308.41
2018-12-07T07:41:28.543Z,98300.86
2018-12-07T07:43:57.110Z,98304.83
2018-12-07T07:46:25.421Z,98313.52
2018-12-07T07:48:53.707Z,98318.03
2018-12-07T07:51:22.242Z,98319.91
2018-12-07T07:53:50.655Z,98306.77
2018-12-07T07:56:18.946Z,98313.55
2018-12-07T07:58:47.328Z,98304.41
2018-12-07T08:01:15.619Z,98300.13
2018-12-07T08:03:44.100Z,98294.62
2018-12-07T08:06:12.410Z,98295.06
2018-12-07T08:08:40.771Z,98281.23
2018-12-07T08:11:09.111Z,98291.14
2018-12-07T08:13:37.629Z,98294.98
2018-12-07T08:16:06.037Z,98295.36
2018-12-07T08:18:34.479Z,98293.20
2018-12-07T08:21:02.714Z,98293.98
2018-12-07T08:23:31.067Z,98290.14
2018-12-07T08:25:59.359Z,98283.50
2018-12-07T08:28:27.598Z,98272.11
2018-12-07T08:30:55.910Z,98274.60
2018-12-07T08:33:24.203Z,98266.98
2018-12-07T08:35:52.549Z,98264.25
2018-12-07T08:38:20.871Z,98255.25
2018-12-07T08:40:49.162Z,98241.42
2018-12-07T08:43:17.474Z,98241.75
2018-12-07T08:45:45.785Z,98230.75
2018-12-07T08:48:14.208Z,98230.30
2018-12-07T08:50:42.484Z,98226.00
2018-12-07T08:53:11.081Z,98232.06
2018-12-07T08:55:39.370Z,98229.66
2018-12-07T08:58:07.680Z,98225.53
2018-12-07T09:00:36.079Z,98229.70
2018-12-07T09:03:05.075Z,98218.47
2018-12-07T09:05:33.421Z,98213.23
2018-12-07T09:08:01.818Z,98212.86
2018-12-07T09:10:30.108Z,98215.61
2018-12-07T09:12:58.407Z,98200.88
2018-12-07T09:15:26.750Z,98202.86
2018-12-07T09:17:55.243Z,98193.14
2018-12-07T09:20:23.560Z,98188.20
2018-12-07T09:22:51.845Z,98192.88
2018-12-07T09:25:20.154Z,98185.85
2018-12-07T09:27:48.438Z,98196.47
2018-12-07T09:30:16.724Z,98193.78
2018-12-07T09:32:45.029Z,98189.16
2018-12-07T09:35:13.516Z,98187.67
2018-12-07T09:37:41.878Z,98176.65
2018-12-07T09:40:10.218Z,98174.09
2018-12-07T09:42:38.533Z,98170.08
2018-12-07T09:45:07.413Z,98181.56
2018-12-07T09:47:35.718Z,98173.86
2018-12-07T09:50:04.312Z,98169.73
2018-12-07T09:52:32.637Z,98169.89
2018-12-07T09:55:00.890Z,98160.67
2018-12-07T09:57:29.204Z,98160.73
2018-12-07T09:59:57.696Z,98166.99
2018-12-07T10:02:26.345Z,98163.72
2018-12-07T10:04:54.755Z,98158.56
2018-12-07T10:07:23.119Z,98151.31
2018-12-07T10:09:51.482Z,98153.16
2018-12-07T10:12:19.777Z,98157.81
2018-12-07T10:14:48.251Z,98149.20
2018-12-07T10:17:16.840Z,98154.36
2018-12-07T10:19:45.212Z,98136.81
2018-12-07T10:22:13.773Z,98131.63
2018-12-07T10:24:42.200Z,98130.88
2018-12-07T10:27:10.807Z,98121.14
2018-12-07T10:29:39.132Z,98115.78
2018-12-07T10:32:07.555Z,98119.67
2018-12-07T10:34:35.855Z,98113.36
2018-12-07T10:37:04.181Z,98113.97
2018-12-07T10:39:32.550Z,98110.44
2018-12-07T10:42:00.845Z,98106.22
2018-12-07T10:44:29.310Z,98099.25
2018-12-07T10:46:57.627Z,98099.08
2018-12-07T10:49:25.956Z,98084.11
2018-12-07T10:51:54.265Z,98077.67
2018-12-07T10:54:22.616Z,98075.19
2018-12-07T10:56:50.987Z,98083.23
2018-12-07T10:59:19.358Z,98076.91
2018-12-07T11:01:53.183Z,98065.84
2018-12-07T11:04:27.499Z,98048.42
2018-12-07T11:07:01.287Z,98045.70
2018-12-07T11:09:35.299Z,98034.92
2018-12-07T11:12:09.503Z,98019.19
2018-12-07T11:14:43.826Z,98017.95
2018-12-07T11:17:17.469Z,98006.54
2018-12-07T11:19:51.310Z,97999.58
2018-12-07T11:22:25.002Z,97995.84
2018-12-07T11:24:58.560Z,97996.58
2018-12-07T11:27:32.096Z,97977.62
2018-12-07T11:30:06.567Z,97980.11
2018-12-07T11:32:39.160Z,97979.30
2018-12-07T11:35:11.645Z,97989.57
2018-12-07T11:37:40.154Z,97967.41
2018-12-07T11:40:09.003Z,97972.20
2018-12-07T11:42:37.386Z,97964.08
2018-12-07T11:45:05.707Z,97961.76
2018-12-07T11:47:34.053Z,97953.66
2018-12-07T11:50:02.464Z,97952.91
2018-12-07T11:52:30.790Z,97950.87
2018-12-07T11:54:59.189Z,97939.75
2018-12-07T11:57:28.271Z,97931.72
2018-12-07T11:59:56.825Z,97929.06
2018-12-07T12:02:26.520Z,97926.50
2018-12-07T12:04:55.110Z,97927.78
2018-12-07T12:07:23.771Z,97922.56
2018-12-07T12:09:52.137Z,97920.84
2018-12-07T12:12:20.491Z,97910.20
2018-12-07T12:14:48.830Z,97917.55
2018-12-07T12:17:17.291Z,97905.37
2018-12-07T12:19:45.554Z,97901.75
2018-12-07T12:22:14.363Z,97900.52
2018-12-07T12:24:42.716Z,97899.70
2018-12-07T12:27:11.157Z,97890.27
2018-12-07T12:29:39.558Z,97884.25
2018-12-07T12:32:08.040Z,97878.02
2018-12-07T12:34:37.046Z,97875.81
2018-12-07T12:37:05.454Z,97878.30
2018-12-07T12:39:33.798Z,97858.78
2018-12-07T12:42:02.105Z,97849.05
2018-12-07T12:44:30.572Z,97836.91
2018-12-07T12:46:58.881Z,97831.34
2018-12-07T12:49:28.640Z,97831.94
2018-12-07T12:51:57.552Z,97823.11
2018-12-07T12:54:25.939Z,97816.77
2018-12-07T12:56:54.214Z,97812.00
2018-12-07T12:59:22.801Z,97815.85
2018-12-07T13:01:51.215Z,97806.08
2018-12-07T13:04:19.619Z,97801.23
2018-12-07T13:06:48.261Z,97787.39
2018-12-07T13:09:16.848Z,97786.77
2018-12-07T13:11:45.373Z,97792.41
2018-12-07T13:14:13.790Z,97787.57
2018-12-07T13:16:42.549Z,97779.57
2018-12-07T13:19:11.044Z,97770.83
2018-12-07T13:21:39.425Z,97760.14
2018-12-07T13:24:07.881Z,97733.32
2018-12-07T13:26:36.128Z,97733.80
2018-12-07T13:29:04.490Z,97730.12
2018-12-07T13:31:33.034Z,97749.70
2018-12-07T13:34:01.857Z,97739.41
2018-12-07T13:36:30.211Z,97725.99
2018-12-07T13:38:58.845Z,97726.29
2018-12-07T13:41:27.623Z,97718.73
2018-12-07T13:43:56.644Z,97715.55
2018-12-07T13:46:25.115Z,97708.13
2018-12-07T13:48:53.854Z,97699.73
2018-12-07T13:51:22.656Z,97687.67
2018-12-07T13:53:51.297Z,97688.17
2018-12-07T13:56:19.775Z,97693.55
2018-12-07T13:58:48.132Z,97690.10
2018-12-07T14:01:16.529Z,97681.56
2018-12-07T14:03:45.022Z,97670.79
2018-12-07T14:06:14.719Z,97668.42
2018-12-07T14:08:43.263Z,97667.27
2018-12-07T14:11:11.722Z,97665.70
2018-12-07T14:13:40.319Z,97662.80
2018-12-07T14:16:08.679Z,97659.53
2018-12-07T14:18:43.597Z,97660.05
2018-12-07T14:21:12.286Z,97654.72
2018-12-07T14:23:40.783Z,97642.25
2018-12-07T14:26:09.599Z,97633.48
2018-12-07T14:28:38.026Z,97628.67
2018-12-07T14:31:06.440Z,97621.27
2018-12-07T14:33:34.768Z,97615.29
2018-12-07T14:36:03.251Z,97615.33
2018-12-07T14:38:31.846Z,97618.85
2018-12-07T14:41:00.580Z,97613.02
2018-12-07T14:43:29.242Z,97604.95
2018-12-07T14:45:57.726Z,97601.16
2018-12-07T14:48:26.318Z,97603.08
2018-12-07T14:50:54.874Z,97607.06
2018-12-07T14:53:23.483Z,97607.51
2018-12-07T14:55:51.844Z,97592.67
2018-12-07T14:58:20.148Z,97592.37
2018-12-07T15:00:48.540Z,97585.80
2018-12-07T15:03:16.990Z,97584.47
2018-12-07T15:05:45.459Z,97565.83
2018-12-07T15:08:13.923Z,97557.06
2018-12-07T15:10:42.569Z,97553.13
2018-12-07T15:13:11.199Z,97560.31
2018-12-07T15:15:39.599Z,97558.83
2018-12-07T15:18:08.472Z,97559.76
2018-12-07T15:20:36.894Z,97557.20
2018-12-07T15:23:05.510Z,97561.75
2018-12-07T15:25:34.126Z,97551.88
2018-12-07T15:28:02.665Z,97544.22
2018-12-07T15:30:31.172Z,97544.98
2018-12-07T15:32:59.563Z,97537.78
2018-12-07T15:35:27.919Z,97549.55
2018-12-07T15:37:56.342Z,97537.66
2018-12-07T15:40:24.848Z,97529.19
2018-12-07T15:42:53.553Z,97543.96
2018-12-07T15:45:22.075Z,97549.34
2018-12-07T15:47:50.493Z,97549.17
2018-12-07T15:50:25.066Z,97525.77
2018-12-07T15:52:49.360Z,97530.89
2018-12-07T15:55:18.792Z,97524.58
2018-12-07T15:57:47.229Z,97521.48
2018-12-07T16:00:15.960Z,97501.10
2018-12-07T16:02:44.552Z,97512.61
2018-12-07T16:05:13.030Z,97539.60
2018-12-07T16:07:41.948Z,97509.44
2018-12-07T16:10:10.539Z,97504.47
2018-12-07T16:12:39.926Z,97492.66
2018-12-07T16:15:08.522Z,97487.33
2018-12-07T16:17:37.146Z,97484.92
2018-12-07T16:20:10.426Z,97486.89
2018-12-07T16:22:39.258Z,97498.49
2018-12-07T16:25:08.026Z,97496.62
2018-12-07T16:27:36.698Z,97499.45
2018-12-07T16:30:07.035Z,97491.84
2018-12-07T16:32:35.772Z,97489.39
2018-12-07T16:35:04.411Z,97501.18
2018-12-07T16:37:32.771Z,97512.07
2018-12-07T16:40:01.664Z,97508.58
2018-12-07T16:42:30.231Z,97502.55
2018-12-07T16:44:58.797Z,97501.78
2018-12-07T16:47:29.297Z,97484.91
2018-12-07T16:49:57.782Z,97494.92
2018-12-07T16:52:26.494Z,97507.52
2018-12-07T16:54:55.184Z,97489.98
2018-12-07T16:57:24.029Z,97460.95
2018-12-07T16:59:52.701Z,97460.52
2018-12-07T17:02:21.322Z,97455.70
2018-12-07T17:04:50.244Z,97426.45
2018-12-07T17:07:18.834Z,97421.33
2018-12-07T17:09:47.442Z,97409.69
2018-12-07T17:12:15.947Z,97403.56
2018-12-07T17:14:44.582Z,97378.09
2018-12-07T17:17:13.341Z,97373.69
2018-12-07T17:19:42.147Z,97362.08
2018-12-07T17:22:10.795Z,97369.80
2018-12-07T17:24:39.384Z,97386.45
2018-12-07T17:27:08.332Z,97383.83
2018-12-07T17:29:36.980Z,97386.53
2018-12-07T17:32:05.713Z,97379.30
2018-12-07T17:34:34.139Z,97384.21
2018-12-07T17:37:02.818Z,97365.20
2018-12-07T17:39:31.554Z,97358.53
2018-12-07T17:41:59.949Z,97352.59
2018-12-07T17:44:28.300Z,97336.73
2018-12-07T17:46:56.705Z,97348.17
2018-12-07T17:49:25.948Z,97335.41
2018-12-07T17:51:54.533Z,97339.31
2018-12-07T17:54:23.095Z,97326.13
2018-12-07T17:56:51.507Z,97329.92
2018-12-07T17:59:20.132Z,97331.43
2018-12-07T18:01:48.655Z,97323.80
2018-12-07T18:04:17.202Z,97324.96
2018-12-07T18:06:46.298Z,97316.06
2018-12-07T18:09:14.672Z,97317.08
2018-12-07T18:11:43.194Z,97313.56
2018-12-07T18:14:11.596Z,97312.17
2018-12-07T18:16:40.215Z,97307.83
2018-12-07T18:19:08.878Z,97313.42
2018-12-07T18:21:37.442Z,97299.28
2018-12-07T18:24:06.006Z,97301.66
2018-12-07T18:26:34.560Z,97297.62
2018-12-07T18:29:03.048Z,97303.13
2018-12-07T18:31:31.416Z,97291.34
2018-12-07T18:34:00.000Z,97293.28
2018-12-07T18:36:28.626Z,97294.03
2018-12-07T18:38:56.962Z,97286.19
2018-12-07T18:41:25.493Z,97291.08
2018-12-07T18:43:55.092Z,97285.34
2018-12-07T18:46:23.889Z,97290.91
2018-12-07T18:48:52.509Z,97296.27
2018-12-07T18:51:21.169Z,97299.75
2018-12-07T18:53:50.094Z,97293.30
2018-12-07T18:56:18.533Z,97285.85
2018-12-07T18:58:47.024Z,97278.45
2018-12-07T19:01:15.368Z,97285.34
2018-12-07T19:03:43.873Z,97268.52
2018-12-07T19:06:12.576Z,97276.30
2018-12-07T19:08:41.154Z,97280.89
2018-12-07T19:11:10.895Z,97275.48
2018-12-07T19:13:44.102Z,97285.52
2018-12-07T19:16:12.697Z,97285.81
2018-12-07T19:18:41.130Z,97280.63
2018-12-07T19:21:09.875Z,97292.70
2018-12-07T19:23:38.408Z,97291.59
2018-12-07T19:26:07.092Z,97289.56
2018-12-07T19:28:35.829Z,97298.91
2018-12-07T19:31:04.713Z,97295.92
2018-12-07T19:33:33.496Z,97295.16
2018-12-07T19:36:02.344Z,97283.46
2018-12-07T19:38:31.196Z,97286.96
2018-12-07T19:41:00.105Z,97293.68
2018-12-07T19:43:28.494Z,97302.91
2018-12-07T19:45:57.001Z,97278.17
2018-12-07T19:48:25.591Z,97294.40
2018-12-07T19:50:54.105Z,97291.52
2018-12-07T19:53:22.634Z,97282.58
2018-12-07T19:55:51.170Z,97301.16
2018-12-07T19:58:19.621Z,97302.14
2018-12-07T20:00:48.402Z,97302.34
2018-12-07T20:03:16.917Z,97318.04
2018-12-07T20:05:45.270Z,97325.77
2018-12-07T20:08:13.618Z,97328.83
2018-12-07T20:10:42.214Z,97323.98
2018-12-07T20:13:10.986Z,97327.20
2018-12-07T20:15:39.538Z,97320.34
2018-12-07T20:18:08.157Z,97340.73
2018-12-07T20:20:36.774Z,97358.33
2018-12-07T20:23:05.240Z,97448.18
2018-12-07T20:25:33.760Z,97463.82
2018-12-07T20:30:29.010Z,97462.23
2018-12-07T20:32:58.184Z,97498.12
2018-12-07T20:35:26.770Z,97453.02
2018-12-07T20:37:55.239Z,97488.32
2018-12-07T20:40:23.520Z,97521.55
2018-12-07T20:42:52.180Z,97499.83
2018-12-07T20:45:21.360Z,97476.45
2018-12-07T20:47:49.793Z,97489.42
2018-12-07T20:50:18.233Z,97499.16
2018-12-07T20:52:46.680Z,97477.91
2018-12-07T20:55:15.253Z,97491.20
2018-12-07T20:57:43.808Z,97514.55
2018-12-07T21:00:12.508Z,97545.45
2018-12-07T21:02:41.134Z,97528.31
2018-12-07T21:06:25.378Z,97524.78
2018-12-07T21:09:31.687Z,97554.70
2018-12-07T21:12:18.922Z,97543.69
2018-12-07T21:14:50.607Z,97552.14
2018-12-07T21:17:38.754Z,97545.48
2018-12-07T21:20:20.643Z,97547.52
2018-12-07T21:22:49.398Z,97568.11
2018-12-07T21:25:18.313Z,97552.84
2018-12-07T21:27:47.535Z,97563.72
2018-12-07T21:31:00.848Z,97560.66
2018-12-07T21:34:12.078Z,97565.40
2018-12-07T21:36:45.157Z,97587.36
2018-12-07T21:39:38.855Z,97585.70
2018-12-07T21:42:29.669Z,97593.55
2018-12-07T21:44:58.448Z,97578.02
2018-12-07T21:48:05.800Z,97600.11
2018-12-07T21:50:35.322Z,97572.41
2018-12-07T21:53:04.097Z,97560.23
2018-12-07T21:55:32.703Z,97572.63
2018-12-07T21:58:02.321Z,97578.88
2018-12-07T22:00:31.733Z,97594.06
2018-12-07T22:03:02.091Z,97613.06
2018-12-07T22:05:31.640Z,97620.42
2018-12-07T22:08:00.202Z,97631.30
2018-12-07T22:10:28.916Z,97632.86
2018-12-07T22:12:57.706Z,97640.21
2018-12-07T22:15:27.183Z,97637.59
2018-12-07T22:17:55.820Z,97664.95
2018-12-07T22:20:24.753Z,97672.39
2018-12-07T22:22:53.483Z,97671.46
2018-12-07T22:25:22.387Z,97649.52
2018-12-07T22:27:51.266Z,97649.03
2018-12-07T22:30:19.871Z,97647.80
2018-12-07T22:32:48.562Z,97663.80
2018-12-07T22:35:17.787Z,97677.55
2018-12-07T22:37:47.458Z,97669.97
2018-12-07T22:40:15.807Z,97657.78
2018-12-07T22:42:44.650Z,97685.11
2018-12-07T22:45:13.452Z,97688.27
2018-12-07T22:47:42.002Z,97699.46
2018-12-07T22:50:10.566Z,97697.72
2018-12-07T22:52:38.869Z,97712.18
2018-12-07T22:55:07.366Z,97725.99
2018-12-07T22:57:35.687Z,97724.13
2018-12-07T23:00:04.922Z,97739.30
2018-12-07T23:02:33.340Z,97746.61
2018-12-07T23:05:01.658Z,97764.84
2018-12-07T23:07:30.286Z,97763.14
2018-12-07T23:09:58.724Z,97763.22
2018-12-07T23:12:27.126Z,97771.44
2018-12-07T23:14:55.415Z,97751.07
2018-12-07T23:17:23.713Z,97762.08
2018-12-07T23:19:52.177Z,97768.02
2018-12-07T23:22:20.546Z,97778.31
2018-12-07T23:24:49.083Z,97792.13
2018-12-07T23:27:17.384Z,97779.56
2018-12-07T23:29:45.625Z,97785.91
2018-12-07T23:32:13.992Z,97776.25
2018-12-07T23:34:42.489Z,97787.05
2018-12-07T23:37:10.750Z,97779.75
2018-12-07T23:39:39.060Z,97784.73
2018-12-07T23:42:07.791Z,97787.94
2018-12-07T23:44:36.234Z,97795.73
2018-12-07T23:47:04.640Z,97791.03
2018-12-07T23:49:33.087Z,97785.20
2018-12-07T23:52:01.501Z,97788.05
2018-12-07T23:54:29.890Z,97782.50
2018-12-07T23:56:58.185Z,97793.11
2018-12-07T23:59:26.481Z,97798.75
